Time;durP1;ratioP1;P1;durP2;ratioP2;P2;SDS_P1;SDS_P2;PMS_P1;PMS_P2;Temp;Humidity;BMP_temperature;BMP_pressure;BME280_temperature;BME280_humidity;BME280_pressure;Samples;Min_cycle;Max_cycle;Signal;HPM_P1;HPM_P2
2021/08/11 00:01:37;;;;;;;5.47;4.97;;;16.90;99.90;;;;;;5039474;28;20627;-88
2021/08/11 00:04:06;;;;;;;5.13;4.07;;;16.90;99.90;;;;;;5045144;28;20798;-88
2021/08/11 00:06:33;;;;;;;7.47;5.00;;;16.90;99.90;;;;;;5051200;28;21192;-88
2021/08/11 00:09:02;;;;;;;5.60;4.33;;;16.80;99.90;;;;;;5041132;28;20685;-88
2021/08/11 00:11:29;;;;;;;5.87;5.33;;;16.80;99.90;;;;;;5050821;28;20622;-88
2021/08/11 00:13:56;;;;;;;6.43;5.17;;;16.70;99.90;;;;;;5034456;28;20660;-89
2021/08/11 00:16:23;;;;;;;6.03;4.63;;;16.70;99.90;;;;;;5034719;28;21164;-88
2021/08/11 00:18:50;;;;;;;5.27;4.50;;;16.70;99.90;;;;;;5051909;28;20623;-88
2021/08/11 00:21:19;;;;;;;11.30;5.40;;;16.70;99.90;;;;;;5037217;28;20624;-88
2021/08/11 00:23:46;;;;;;;5.50;5.00;;;16.70;99.90;;;;;;5043914;28;21181;-89
2021/08/11 00:26:15;;;;;;;5.63;5.00;;;16.70;99.90;;;;;;5038853;28;20615;-89
2021/08/11 00:28:43;;;;;;;7.60;5.27;;;16.70;99.90;;;;;;5031966;28;20721;-89
2021/08/11 00:31:10;;;;;;;5.40;4.23;;;16.70;99.90;;;;;;5034551;28;20624;-89
2021/08/11 00:33:37;;;;;;;6.30;4.10;;;16.70;99.90;;;;;;5034894;28;20629;-89
2021/08/11 00:36:04;;;;;;;4.20;3.80;;;16.60;99.90;;;;;;5051654;28;20621;-89
2021/08/11 00:38:33;;;;;;;5.33;4.90;;;16.70;99.90;;;;;;5051005;28;21271;-89
2021/08/11 00:41:00;;;;;;;5.00;4.50;;;16.70;99.90;;;;;;5031003;28;20614;-88
2021/08/11 00:43:27;;;;;;;7.60;5.17;;;16.60;99.90;;;;;;5043390;28;20610;-88
2021/08/11 00:45:54;;;;;;;5.27;4.77;;;16.70;99.90;;;;;;5049707;28;20621;-88
2021/08/11 00:48:23;;;;;;;5.70;5.20;;;16.60;99.90;;;;;;5031233;28;20659;-89
2021/08/11 00:50:51;;;;;;;5.03;4.53;;;16.60;99.90;;;;;;5032321;28;20626;-88
2021/08/11 00:53:22;;;;;;;5.20;4.70;;;16.60;99.90;;;;;;5039541;28;21218;-89
2021/08/11 00:55:51;;;;;;;5.47;4.97;;;16.60;99.90;;;;;;5035202;28;20634;-89
2021/08/11 00:58:20;;;;;;;5.60;5.10;;;16.60;99.90;;;;;;5046091;28;20628;-88
2021/08/11 01:00:50;;;;;;;5.40;4.50;;;16.60;99.90;;;;;;5029926;28;20664;-89
2021/08/11 01:03:22;;;;;;;4.47;4.07;;;16.50;99.90;;;;;;5030347;28;20844;-88
2021/08/11 01:05:53;;;;;;;8.20;4.60;;;16.50;99.90;;;;;;5044742;28;20658;-88
2021/08/11 01:08:23;;;;;;;5.37;4.90;;;16.50;99.90;;;;;;5049130;28;20691;-88
2021/08/11 01:10:54;;;;;;;5.70;4.80;;;16.60;99.90;;;;;;5048812;28;21275;-88
2021/08/11 01:13:23;;;;;;;4.47;4.17;;;16.70;99.90;;;;;;5050124;28;20630;-88
2021/08/11 01:15:52;;;;;;;7.30;4.47;;;16.70;99.90;;;;;;5050185;28;20624;-89
2021/08/11 01:18:21;;;;;;;5.40;4.90;;;16.70;99.90;;;;;;5029962;28;20686;-88
2021/08/11 01:20:57;;;;;;;4.30;3.90;;;16.60;99.90;;;;;;5031569;28;20631;-89
2021/08/11 01:23:30;;;;;;;5.47;4.97;;;16.60;99.90;;;;;;5034827;28;20649;-89
2021/08/11 01:26:06;;;;;;;5.37;4.87;;;16.60;99.90;;;;;;5049067;28;20628;-88
2021/08/11 01:28:57;;;;;;;6.07;4.50;;;16.60;99.90;;;;;;5043811;28;20659;-89
2021/08/11 01:31:39;;;;;;;5.53;4.40;;;16.70;99.90;;;;;;5030506;28;20727;-89
2021/08/11 01:34:09;;;;;;;5.47;4.73;;;16.70;99.90;;;;;;5031568;28;21080;-89
2021/08/11 01:36:49;;;;;;;5.40;4.90;;;16.70;99.90;;;;;;5036745;28;20631;-88
2021/08/11 01:39:26;;;;;;;5.53;4.80;;;16.70;99.90;;;;;;5038651;28;20635;-89
2021/08/11 01:41:59;;;;;;;5.40;5.00;;;16.60;99.90;;;;;;5039284;28;20641;-89
2021/08/11 01:44:33;;;;;;;5.47;4.73;;;16.70;99.90;;;;;;5049823;28;20665;-89
2021/08/11 01:47:04;;;;;;;6.13;4.83;;;16.60;99.90;;;;;;5048480;28;20666;-88
2021/08/11 01:49:35;;;;;;;5.10;4.60;;;16.70;99.90;;;;;;5048610;28;20755;-88
2021/08/11 01:52:06;;;;;;;5.80;4.23;;;16.70;99.90;;;;;;5044442;28;21237;-88
2021/08/11 01:54:36;;;;;;;5.87;4.83;;;16.70;99.90;;;;;;5039291;28;20627;-88
2021/08/11 01:57:05;;;;;;;5.83;5.33;;;16.70;99.90;;;;;;5039662;28;21002;-89
2021/08/11 01:59:34;;;;;;;5.73;5.07;;;16.70;99.90;;;;;;5030251;28;20633;-88
2021/08/11 02:02:02;;;;;;;5.77;5.27;;;16.60;99.90;;;;;;5044939;28;20629;-88
2021/08/11 02:04:31;;;;;;;5.20;4.80;;;16.60;99.90;;;;;;5049372;28;20623;-88
2021/08/11 02:07:01;;;;;;;7.03;5.20;;;16.50;99.90;;;;;;5050373;28;20627;-88
2021/08/11 02:09:29;;;;;;;5.63;5.10;;;16.50;99.90;;;;;;5030318;28;20680;-88
2021/08/11 02:11:57;;;;;;;5.20;4.70;;;16.50;99.90;;;;;;5031116;28;20682;-88
2021/08/11 02:14:26;;;;;;;6.13;5.47;;;16.50;99.90;;;;;;5037510;28;20713;-88
2021/08/11 02:16:54;;;;;;;5.87;4.90;;;16.50;99.90;;;;;;5038068;28;20631;-89
2021/08/11 02:19:25;;;;;;;6.43;5.33;;;16.50;99.90;;;;;;5031463;28;21219;-88
2021/08/11 02:21:55;;;;;;;9.97;5.30;;;16.40;99.90;;;;;;5032968;28;20643;-89
2021/08/11 02:24:24;;;;;;;6.07;5.47;;;16.40;99.90;;;;;;5035408;28;20985;-88
2021/08/11 02:27:01;;;;;;;6.50;4.80;;;16.30;99.90;;;;;;5047955;28;20693;-88
2021/08/11 02:29:41;;;;;;;5.80;5.17;;;16.40;99.90;;;;;;5047683;28;20662;-88
2021/08/11 02:32:16;;;;;;;5.70;5.20;;;16.40;99.90;;;;;;5049485;28;20984;-88
2021/08/11 02:34:53;;;;;;;5.20;4.70;;;16.40;99.90;;;;;;5038815;28;20653;-89
2021/08/11 02:37:28;;;;;;;4.80;4.40;;;16.40;99.90;;;;;;5044791;28;20634;-88
2021/08/11 02:40:06;;;;;;;4.90;4.50;;;16.30;99.90;;;;;;5049425;28;20667;-89
2021/08/11 02:42:39;;;;;;;5.97;5.43;;;16.20;99.90;;;;;;5032555;28;20688;-88
2021/08/11 02:45:11;;;;;;;4.80;4.40;;;16.20;99.90;;;;;;5034089;28;20645;-88
2021/08/11 02:47:40;;;;;;;4.87;4.37;;;16.20;99.90;;;;;;5050036;28;20615;-88
2021/08/11 02:50:09;;;;;;;5.70;5.20;;;16.20;99.90;;;;;;5040770;28;20654;-88
2021/08/11 02:52:38;;;;;;;6.80;5.43;;;16.10;99.90;;;;;;5045285;28;20652;-88
2021/08/11 02:55:09;;;;;;;12.23;5.70;;;16.10;99.90;;;;;;5041080;28;20620;-88
2021/08/11 02:57:37;;;;;;;5.33;4.83;;;16.20;99.90;;;;;;5053444;28;20722;-88
2021/08/11 03:00:05;;;;;;;7.80;6.00;;;16.20;99.90;;;;;;5050240;28;20626;-88
2021/08/11 03:02:32;;;;;;;7.30;5.50;;;16.10;99.90;;;;;;5033233;28;21175;-87
2021/08/11 03:05:00;;;;;;;6.63;5.93;;;16.10;99.90;;;;;;5043940;28;20603;-88
2021/08/11 03:07:28;;;;;;;6.47;5.60;;;16.10;99.90;;;;;;5053179;28;20626;-88
2021/08/11 03:09:55;;;;;;;8.00;6.30;;;16.20;99.90;;;;;;5049195;28;20663;-87
2021/08/11 03:12:24;;;;;;;6.00;5.50;;;16.20;99.90;;;;;;5039083;28;20615;-88
2021/08/11 03:14:51;;;;;;;5.40;4.90;;;16.20;99.90;;;;;;5032999;28;21291;-88
2021/08/11 03:17:18;;;;;;;6.37;5.77;;;16.20;99.90;;;;;;5033723;28;20977;-88
2021/08/11 03:19:45;;;;;;;5.73;5.13;;;16.10;99.90;;;;;;5040020;28;20639;-88
2021/08/11 03:22:13;;;;;;;6.17;5.67;;;16.00;99.90;;;;;;5031130;28;20632;-88
2021/08/11 03:24:40;;;;;;;8.50;5.70;;;16.00;99.90;;;;;;5039044;28;21257;-88
2021/08/11 03:27:07;;;;;;;5.33;4.50;;;16.00;99.90;;;;;;5034035;28;21222;-87
2021/08/11 03:29:35;;;;;;;6.77;5.80;;;16.00;99.90;;;;;;5033219;28;20656;-88
2021/08/11 03:32:03;;;;;;;9.37;5.47;;;16.00;99.90;;;;;;5033578;28;20982;-88
2021/08/11 03:34:30;;;;;;;5.57;5.07;;;15.90;99.90;;;;;;5041252;28;20685;-88
2021/08/11 03:36:57;;;;;;;5.43;4.93;;;15.90;99.90;;;;;;5052292;28;20629;-88
2021/08/11 03:39:24;;;;;;;5.67;4.93;;;15.80;99.90;;;;;;5050775;28;20634;-88
2021/08/11 03:41:51;;;;;;;7.63;5.57;;;15.80;99.90;;;;;;5051618;28;20627;-88
2021/08/11 03:44:18;;;;;;;8.13;5.30;;;15.70;99.90;;;;;;5044617;28;20670;-87
2021/08/11 03:46:46;;;;;;;5.17;4.67;;;15.70;99.90;;;;;;5042264;28;20607;-88
2021/08/11 03:49:13;;;;;;;6.77;5.10;;;15.70;99.90;;;;;;5039174;28;20677;-88
2021/08/11 03:51:40;;;;;;;5.80;5.10;;;15.70;99.90;;;;;;5051777;28;20964;-87
2021/08/11 03:54:07;;;;;;;5.83;5.33;;;15.70;99.90;;;;;;5046368;28;20630;-88
2021/08/11 03:56:34;;;;;;;9.63;6.70;;;15.70;99.90;;;;;;5032968;28;20627;-88
2021/08/11 03:59:01;;;;;;;6.40;5.80;;;15.70;99.90;;;;;;5049365;28;20684;-88
2021/08/11 04:01:28;;;;;;;6.03;5.43;;;15.70;99.90;;;;;;5049788;28;20980;-87
2021/08/11 04:03:56;;;;;;;14.53;5.87;;;15.70;99.90;;;;;;5050736;28;20619;-88
2021/08/11 04:06:23;;;;;;;7.30;5.87;;;15.70;99.90;;;;;;5039281;28;20626;-87
2021/08/11 04:08:50;;;;;;;6.50;5.60;;;15.70;99.90;;;;;;5032046;28;20685;-87
2021/08/11 04:11:17;;;;;;;9.63;5.73;;;15.70;99.90;;;;;;5038893;28;20685;-87
2021/08/11 04:13:44;;;;;;;5.77;5.10;;;15.80;99.90;;;;;;5048469;28;20627;-87
2021/08/11 04:16:11;;;;;;;8.20;6.50;;;15.80;99.90;;;;;;5047136;28;20611;-87
2021/08/11 04:18:38;;;;;;;6.73;5.33;;;15.80;99.90;;;;;;5049794;28;20630;-87
2021/08/11 04:21:07;;;;;;;6.20;5.60;;;15.70;99.90;;;;;;5031371;28;20615;-87
2021/08/11 04:23:34;;;;;;;7.07;6.23;;;15.70;99.90;;;;;;5039664;28;20633;-87
2021/08/11 04:26:01;;;;;;;8.53;5.80;;;15.70;99.90;;;;;;5037497;28;20627;-87
2021/08/11 04:28:28;;;;;;;7.50;6.80;;;15.70;99.90;;;;;;5047237;28;20618;-87
2021/08/11 04:30:55;;;;;;;7.00;5.80;;;15.80;99.90;;;;;;5033935;28;20685;-87
2021/08/11 04:33:22;;;;;;;5.90;5.30;;;15.80;99.90;;;;;;5031232;28;20634;-87
2021/08/11 04:35:49;;;;;;;7.33;6.53;;;15.70;99.90;;;;;;5032068;28;21188;-87
2021/08/11 04:38:18;;;;;;;6.60;6.00;;;15.80;99.90;;;;;;5051550;28;21085;-87
2021/08/11 04:40:45;;;;;;;9.00;5.93;;;15.80;99.90;;;;;;5050424;28;20654;-86
2021/08/11 04:43:12;;;;;;;6.47;5.87;;;15.80;99.90;;;;;;5045772;28;20678;-87
2021/08/11 04:45:40;;;;;;;7.70;5.70;;;15.80;99.90;;;;;;5031365;28;21235;-86
2021/08/11 04:48:06;;;;;;;7.93;6.10;;;15.70;99.90;;;;;;5050306;28;21094;-87
2021/08/11 04:50:33;;;;;;;6.43;5.40;;;15.70;99.90;;;;;;5051381;28;20735;-87
2021/08/11 04:53:00;;;;;;;7.47;6.70;;;15.70;99.90;;;;;;5033052;28;20627;-87
2021/08/11 04:55:29;;;;;;;7.23;6.53;;;15.70;99.90;;;;;;5044969;28;20631;-87
2021/08/11 04:57:56;;;;;;;7.77;7.07;;;15.70;99.90;;;;;;5041286;28;20623;-86
2021/08/11 05:00:23;;;;;;;8.13;5.60;;;15.70;99.90;;;;;;5030804;28;20672;-86
2021/08/11 05:02:50;;;;;;;9.07;6.23;;;15.80;99.90;;;;;;5029380;28;20947;-86
2021/08/11 05:05:17;;;;;;;9.73;6.43;;;16.00;99.90;;;;;;5032955;28;20621;-86
2021/08/11 05:07:44;;;;;;;8.20;6.63;;;16.20;99.90;;;;;;5049994;28;21217;-85
2021/08/11 05:10:12;;;;;;;10.67;7.50;;;16.20;99.90;;;;;;5047164;28;20666;-85
2021/08/11 05:12:44;;;;;;;10.03;6.47;;;16.30;99.90;;;;;;5034557;28;20629;-86
2021/08/11 05:15:12;;;;;;;9.43;6.40;;;16.30;99.90;;;;;;5030387;28;20625;-86
2021/08/11 05:17:39;;;;;;;9.03;7.23;;;16.30;99.90;;;;;;5029037;28;20612;-85
2021/08/11 05:20:07;;;;;;;7.87;7.03;;;16.50;99.90;;;;;;5028859;28;20681;-85
2021/08/11 05:22:34;;;;;;;8.47;7.07;;;16.50;99.90;;;;;;5036380;28;21258;-85
2021/08/11 05:25:01;;;;;;;12.20;7.90;;;16.50;99.90;;;;;;5032495;28;20661;-86
2021/08/11 05:27:28;;;;;;;10.53;8.40;;;16.50;99.90;;;;;;5036898;28;20610;-85
2021/08/11 05:29:57;;;;;;;9.87;7.90;;;16.40;99.90;;;;;;5049469;28;20737;-86
2021/08/11 05:32:24;;;;;;;9.53;7.83;;;16.60;99.90;;;;;;5050840;28;20672;-87
2021/08/11 05:34:51;;;;;;;8.37;7.57;;;16.60;99.90;;;;;;5045718;28;21007;-87
2021/08/11 05:37:18;;;;;;;8.80;8.00;;;16.60;99.90;;;;;;5044187;28;20613;-87
2021/08/11 05:39:45;;;;;;;8.17;7.37;;;16.50;99.90;;;;;;5051244;28;20680;-86
2021/08/11 05:42:11;;;;;;;10.83;7.73;;;16.50;99.90;;;;;;5045428;28;20695;-86
2021/08/11 05:44:38;;;;;;;11.03;7.30;;;16.60;99.90;;;;;;5035872;28;20670;-86
2021/08/11 05:47:09;;;;;;;12.30;9.30;;;16.70;99.90;;;;;;5038841;28;20609;-86
2021/08/11 05:49:36;;;;;;;11.30;10.07;;;16.70;99.90;;;;;;5024627;28;21092;-86
2021/08/11 05:52:04;;;;;;;8.03;7.10;;;16.70;99.90;;;;;;5025805;28;20623;-86
2021/08/11 05:54:31;;;;;;;13.30;7.50;;;16.80;99.90;;;;;;5046654;28;20647;-86
2021/08/11 05:56:58;;;;;;;7.33;6.63;;;16.80;99.90;;;;;;5056939;28;20611;-87
2021/08/11 05:59:25;;;;;;;6.90;6.20;;;16.90;99.90;;;;;;5041238;28;20617;-87
2021/08/11 06:01:52;;;;;;;7.43;6.73;;;17.10;99.90;;;;;;5053629;28;20625;-87
2021/08/11 06:04:22;;;;;;;6.43;5.83;;;17.10;99.90;;;;;;5043201;28;20617;-86
2021/08/11 06:06:50;;;;;;;7.70;5.97;;;17.30;99.90;;;;;;5033620;28;20668;-85
2021/08/11 06:09:17;;;;;;;6.20;5.60;;;17.30;99.90;;;;;;5033594;28;20613;-86
2021/08/11 06:11:44;;;;;;;7.60;5.83;;;17.30;99.90;;;;;;5044532;28;20679;-85
2021/08/11 06:14:11;;;;;;;6.90;6.20;;;17.30;99.90;;;;;;5047734;28;20990;-86
2021/08/11 06:16:38;;;;;;;10.23;7.00;;;17.40;99.90;;;;;;5043009;28;20610;-86
2021/08/11 06:19:06;;;;;;;6.30;5.70;;;17.50;99.90;;;;;;5037585;28;20693;-86
2021/08/11 06:21:36;;;;;;;9.80;5.70;;;17.60;99.90;;;;;;5037609;28;20674;-86
2021/08/11 06:24:04;;;;;;;6.53;5.93;;;17.70;99.90;;;;;;5040388;28;20629;-86
2021/08/11 06:26:35;;;;;;;6.93;5.27;;;17.80;99.90;;;;;;5046828;28;20737;-86
2021/08/11 06:29:02;;;;;;;5.63;5.10;;;17.90;99.90;;;;;;5049093;28;20627;-86
2021/08/11 06:31:31;;;;;;;7.20;5.80;;;17.90;99.90;;;;;;5055925;28;20684;-86
2021/08/11 06:33:58;;;;;;;6.83;5.43;;;18.00;99.90;;;;;;5043006;28;20703;-86
2021/08/11 06:36:25;;;;;;;6.30;5.40;;;18.10;99.90;;;;;;5037320;28;20684;-86
2021/08/11 06:38:54;;;;;;;6.70;5.90;;;18.30;99.90;;;;;;5036288;28;20619;-87
2021/08/11 06:41:21;;;;;;;5.07;4.50;;;18.40;99.90;;;;;;5044978;28;20630;-86
2021/08/11 06:43:48;;;;;;;6.03;5.43;;;18.60;99.90;;;;;;5056153;28;21170;-86
2021/08/11 06:46:15;;;;;;;7.93;5.50;;;18.60;99.90;;;;;;5056721;28;20640;-87
2021/08/11 06:48:43;;;;;;;7.20;5.03;;;18.70;99.90;;;;;;5056512;28;20633;-86
2021/08/11 06:51:12;;;;;;;6.77;5.20;;;18.90;99.90;;;;;;5056374;28;20787;-87
2021/08/11 06:53:39;;;;;;;6.60;6.00;;;18.90;99.90;;;;;;5055723;28;20614;-87
2021/08/11 06:56:08;;;;;;;7.10;6.20;;;18.90;99.90;;;;;;5056167;28;21051;-87
2021/08/11 06:58:38;;;;;;;6.50;5.97;;;18.80;99.90;;;;;;5056535;28;20672;-87
2021/08/11 07:01:05;;;;;;;6.67;6.07;;;18.80;99.90;;;;;;5057403;28;20664;-86
2021/08/11 07:03:35;;;;;;;6.87;5.57;;;18.90;99.90;;;;;;5055221;28;20657;-87
2021/08/11 07:06:17;;;;;;;5.63;5.13;;;19.00;99.90;;;;;;5051511;28;20662;-86
2021/08/11 07:08:44;;;;;;;6.30;5.70;;;19.10;99.90;;;;;;5036074;28;20650;-86
2021/08/11 07:11:12;;;;;;;5.53;4.87;;;19.20;99.90;;;;;;5036352;28;20670;-86
2021/08/11 07:13:39;;;;;;;6.40;5.80;;;19.40;99.90;;;;;;5043464;28;21002;-86
2021/08/11 07:16:06;;;;;;;5.90;5.30;;;19.50;99.90;;;;;;5056914;28;20662;-87
2021/08/11 07:18:33;;;;;;;6.30;5.70;;;19.50;99.90;;;;;;5056278;28;20721;-85
2021/08/11 07:21:00;;;;;;;6.40;4.80;;;19.60;99.90;;;;;;5054099;28;20630;-87
2021/08/11 07:23:27;;;;;;;4.70;4.30;;;19.80;99.90;;;;;;5039697;28;20642;-85
2021/08/11 07:25:54;;;;;;;5.97;5.47;;;20.00;99.50;;;;;;5055048;28;20676;-85
2021/08/11 07:28:23;;;;;;;5.03;4.50;;;20.00;98.80;;;;;;5056336;28;20676;-85
2021/08/11 07:30:50;;;;;;;6.80;5.43;;;20.00;98.80;;;;;;5055758;28;20673;-85
2021/08/11 07:33:17;;;;;;;5.80;5.20;;;20.20;99.20;;;;;;5053774;28;20610;-85
2021/08/11 07:35:44;;;;;;;5.67;5.17;;;20.20;99.40;;;;;;5053621;28;20610;-85
2021/08/11 07:38:11;;;;;;;5.97;5.33;;;20.40;99.00;;;;;;5057741;28;21039;-85
2021/08/11 07:40:38;;;;;;;5.23;4.73;;;20.50;98.70;;;;;;5051272;28;20642;-87
2021/08/11 07:43:06;;;;;;;6.40;4.83;;;20.70;98.30;;;;;;5038144;28;20635;-85
2021/08/11 07:45:35;;;;;;;7.57;4.57;;;20.80;98.10;;;;;;5056017;28;20714;-86
2021/08/11 07:48:04;;;;;;;5.23;4.73;;;20.90;98.00;;;;;;5050669;28;20628;-86
2021/08/11 07:50:33;;;;;;;5.27;4.70;;;20.90;97.40;;;;;;5039205;28;20667;-85
2021/08/11 07:53:00;;;;;;;7.00;5.20;;;20.90;98.00;;;;;;5044886;28;20816;-85
2021/08/11 07:55:29;;;;;;;6.73;5.97;;;21.10;97.50;;;;;;5043817;28;20609;-85
2021/08/11 07:57:56;;;;;;;5.30;4.60;;;21.00;98.50;;;;;;5043706;28;20628;-85
2021/08/11 08:00:24;;;;;;;5.20;4.80;;;21.10;97.50;;;;;;5044760;28;20631;-85
2021/08/11 08:02:52;;;;;;;6.03;5.47;;;21.10;97.70;;;;;;5041963;28;20628;-86
2021/08/11 08:05:20;;;;;;;7.90;4.87;;;21.20;97.20;;;;;;5043518;28;20626;-85
2021/08/11 08:07:47;;;;;;;8.30;5.43;;;21.30;96.90;;;;;;5040700;28;21183;-85
2021/08/11 08:10:15;;;;;;;7.23;4.37;;;21.60;96.70;;;;;;5045818;28;20681;-84
2021/08/11 08:12:43;;;;;;;4.80;4.40;;;21.50;97.50;;;;;;5043585;28;20618;-85
2021/08/11 08:15:11;;;;;;;4.50;4.17;;;21.30;97.20;;;;;;5033502;28;20660;-86
2021/08/11 08:17:39;;;;;;;8.43;5.30;;;21.40;97.70;;;;;;5044688;28;20688;-85
2021/08/11 08:20:09;;;;;;;5.20;4.80;;;21.60;96.80;;;;;;5043864;28;21016;-85
2021/08/11 08:22:36;;;;;;;7.70;5.93;;;21.90;96.40;;;;;;5037956;28;21240;-84
2021/08/11 08:25:03;;;;;;;5.90;5.30;;;21.80;97.00;;;;;;5042063;28;20972;-85
2021/08/11 08:27:31;;;;;;;6.17;5.20;;;21.70;96.50;;;;;;5050603;28;20737;-84
2021/08/11 08:29:58;;;;;;;5.20;4.00;;;21.90;96.90;;;;;;5054659;28;20691;-86
2021/08/11 08:32:29;;;;;;;7.77;4.83;;;22.10;96.10;;;;;;5052222;28;20629;-85
2021/08/11 08:34:56;;;;;;;6.30;5.00;;;22.30;96.50;;;;;;5048966;28;21264;-88
2021/08/11 08:37:29;;;;;;;4.57;4.17;;;22.50;95.70;;;;;;5050922;28;20640;-84
2021/08/11 08:39:56;;;;;;;6.37;5.63;;;22.60;94.70;;;;;;5051408;28;20630;-85
2021/08/11 08:42:23;;;;;;;6.37;4.80;;;22.80;94.70;;;;;;5049463;28;20626;-85
2021/08/11 08:44:50;;;;;;;6.17;5.57;;;22.90;95.20;;;;;;5049573;28;20636;-86
2021/08/11 08:47:18;;;;;;;5.33;4.60;;;22.90;94.40;;;;;;5050389;28;20612;-86
2021/08/11 08:49:46;;;;;;;9.03;5.10;;;22.90;94.90;;;;;;5050610;28;21026;-86
2021/08/11 08:52:16;;;;;;;5.47;5.00;;;22.70;94.80;;;;;;5050469;28;20675;-86
2021/08/11 08:54:46;;;;;;;5.40;4.20;;;22.80;95.00;;;;;;5051285;28;20631;-85
2021/08/11 08:57:13;;;;;;;5.47;4.93;;;23.00;95.20;;;;;;5052472;28;20628;-86
2021/08/11 08:59:44;;;;;;;6.70;4.63;;;22.90;95.00;;;;;;5050605;28;20631;-85
2021/08/11 09:02:11;;;;;;;5.80;5.20;;;22.80;94.60;;;;;;5050232;28;20654;-86
2021/08/11 09:04:39;;;;;;;5.53;5.03;;;22.90;95.10;;;;;;5053043;28;20629;-85
2021/08/11 09:07:09;;;;;;;4.87;4.53;;;22.90;94.80;;;;;;5071356;28;20620;-86
2021/08/11 09:09:37;;;;;;;5.40;5.00;;;23.10;94.10;;;;;;5061655;28;20675;-86
2021/08/11 09:12:15;;;;;;;5.37;4.87;;;23.30;94.50;;;;;;5047888;28;20669;-85
2021/08/11 09:14:45;;;;;;;5.00;4.60;;;23.50;94.80;;;;;;5048638;28;20625;-86
2021/08/11 09:17:13;;;;;;;5.30;4.90;;;23.60;93.60;;;;;;5050359;28;20621;-85
2021/08/11 09:19:43;;;;;;;6.40;4.53;;;23.80;93.60;;;;;;5048974;28;20625;-86
2021/08/11 09:22:12;;;;;;;5.20;4.50;;;23.70;93.80;;;;;;5048731;28;21056;-86
2021/08/11 09:24:40;;;;;;;5.67;5.00;;;23.90;93.60;;;;;;5047004;28;20723;-84
2021/08/11 09:27:20;;;;;;;10.33;5.07;;;24.00;93.90;;;;;;5040729;28;20662;-85
2021/08/11 09:30:05;;;;;;;6.50;4.70;;;23.90;92.30;;;;;;5046480;28;20626;-86
2021/08/11 09:32:33;;;;;;;4.83;4.43;;;24.00;92.40;;;;;;5049072;28;20650;-86
2021/08/11 09:35:07;;;;;;;5.17;4.77;;;24.20;91.30;;;;;;5050192;28;21241;-85
2021/08/11 09:37:39;;;;;;;4.83;4.47;;;24.40;92.10;;;;;;5050071;28;20648;-86
2021/08/11 09:40:13;;;;;;;5.40;4.50;;;24.50;92.20;;;;;;5049680;28;21015;-85
2021/08/11 09:42:43;;;;;;;7.40;4.50;;;24.60;91.20;;;;;;5028889;28;20611;-85
2021/08/11 09:45:11;;;;;;;6.47;4.23;;;24.60;90.40;;;;;;5029825;28;20642;-85
2021/08/11 09:47:39;;;;;;;4.40;4.10;;;24.60;90.00;;;;;;5031172;28;20626;-85
2021/08/11 09:50:10;;;;;;;5.23;4.73;;;24.70;90.60;;;;;;5046494;28;20615;-85
2021/08/11 09:52:48;;;;;;;4.30;3.90;;;25.00;90.80;;;;;;5050128;28;20687;-83
2021/08/11 09:55:15;;;;;;;4.80;4.40;;;24.90;89.30;;;;;;5050128;28;20957;-85
2021/08/11 09:57:44;;;;;;;4.40;4.10;;;24.80;90.50;;;;;;5049449;28;21270;-84
2021/08/11 10:00:14;;;;;;;4.70;4.40;;;25.00;90.70;;;;;;5049505;28;20614;-85
2021/08/11 10:02:43;;;;;;;5.53;5.03;;;25.10;91.30;;;;;;5049544;28;20661;-85
2021/08/11 10:05:30;;;;;;;4.90;4.40;;;25.20;88.40;;;;;;5051088;28;20626;-85
2021/08/11 10:07:57;;;;;;;4.57;4.17;;;25.10;90.10;;;;;;5050199;28;20594;-85
2021/08/11 10:10:24;;;;;;;6.93;5.03;;;25.20;90.10;;;;;;5050395;28;20618;-85
2021/08/11 10:12:53;;;;;;;5.20;4.80;;;25.20;90.50;;;;;;5049941;28;20728;-85
2021/08/11 10:15:21;;;;;;;5.50;5.10;;;25.50;87.60;;;;;;5050282;28;21297;-86
2021/08/11 10:17:50;;;;;;;4.73;4.43;;;25.50;90.80;;;;;;5050089;28;20611;-86
2021/08/11 10:20:22;;;;;;;6.43;4.93;;;25.50;88.30;;;;;;5050918;28;21454;-86
2021/08/11 10:22:50;;;;;;;5.20;4.70;;;25.50;90.30;;;;;;5049480;28;20715;-86
2021/08/11 10:25:17;;;;;;;5.50;4.50;;;25.70;87.70;;;;;;5042186;28;20624;-86
2021/08/11 10:27:45;;;;;;;5.00;4.50;;;25.60;87.40;;;;;;5046270;28;20619;-85
2021/08/11 10:30:15;;;;;;;5.53;5.00;;;25.70;89.90;;;;;;5049978;28;20705;-86
2021/08/11 10:32:42;;;;;;;5.03;4.53;;;25.50;86.60;;;;;;5048950;28;20682;-85
2021/08/11 10:35:10;;;;;;;4.73;4.20;;;25.20;87.10;;;;;;5050138;28;20618;-86
2021/08/11 10:37:37;;;;;;;5.30;4.90;;;25.50;89.70;;;;;;5050221;28;20670;-85
2021/08/11 10:40:05;;;;;;;5.07;4.67;;;25.90;89.00;;;;;;5049588;28;20712;-85
2021/08/11 10:42:32;;;;;;;5.83;5.17;;;26.20;89.50;;;;;;5048566;28;20726;-86
2021/08/11 10:45:00;;;;;;;5.03;4.53;;;26.10;86.40;;;;;;5049345;28;20622;-84
2021/08/11 10:47:33;;;;;;;4.97;4.57;;;25.60;84.80;;;;;;5032469;28;20631;-86
2021/08/11 10:50:02;;;;;;;5.70;5.20;;;25.30;89.30;;;;;;5039005;28;21227;-86
2021/08/11 10:52:31;;;;;;;4.97;4.37;;;25.20;90.10;;;;;;5041520;28;20762;-86
2021/08/11 10:54:59;;;;;;;5.57;5.07;;;25.10;90.60;;;;;;5039860;28;20726;-87
2021/08/11 10:57:50;;;;;;;4.97;4.57;;;24.90;90.30;;;;;;5034214;28;20627;-87
2021/08/11 11:00:41;;;;;;;4.83;4.43;;;24.90;90.70;;;;;;5028167;28;21126;-87
2021/08/11 11:03:11;;;;;;;4.77;4.27;;;24.80;90.50;;;;;;5051208;28;20706;-87
2021/08/11 11:06:05;;;;;;;6.23;5.13;;;24.70;89.00;;;;;;5050265;28;20630;-86
2021/08/11 11:08:39;;;;;;;4.90;4.50;;;24.60;90.30;;;;;;5051705;28;20966;-87
2021/08/11 11:11:39;;;;;;;5.13;4.63;;;24.50;91.10;;;;;;5052432;28;20929;-87
2021/08/11 11:14:08;;;;;;;7.03;5.40;;;24.50;90.40;;;;;;5055690;28;20672;-87
2021/08/11 11:17:12;;;;;;;5.57;5.17;;;24.50;90.70;;;;;;5053922;28;20954;-87
2021/08/11 11:20:35;;;;;;;5.40;4.90;;;24.50;91.50;;;;;;5054653;28;20951;-86
2021/08/11 11:23:06;;;;;;;4.90;4.50;;;24.90;91.40;;;;;;5017461;28;20651;-84
2021/08/11 11:25:56;;;;;;;7.40;5.27;;;25.10;89.70;;;;;;5043441;28;20614;-87
2021/08/11 11:28:56;;;;;;;4.90;4.50;;;25.30;90.20;;;;;;5053485;28;20611;-87
2021/08/11 11:31:35;;;;;;;4.77;4.40;;;26.00;87.80;;;;;;5050768;28;20688;-86
2021/08/11 11:34:24;;;;;;;5.77;5.20;;;26.60;86.60;;;;;;5052815;28;20676;-85
2021/08/11 11:37:26;;;;;;;5.47;4.90;;;27.00;82.70;;;;;;5052992;28;20621;-86
2021/08/11 11:40:14;;;;;;;4.70;4.30;;;27.50;83.30;;;;;;5052504;28;20622;-86
2021/08/11 11:42:42;;;;;;;5.73;5.23;;;27.90;81.60;;;;;;5050250;28;20630;-86
2021/08/11 11:45:11;;;;;;;5.13;4.73;;;28.20;76.50;;;;;;5052737;28;20615;-87
2021/08/11 11:48:05;;;;;;;5.90;5.40;;;28.90;71.60;;;;;;5053209;28;20621;-86
2021/08/11 11:50:41;;;;;;;5.33;4.73;;;28.90;72.80;;;;;;5017146;28;20622;-84
2021/08/11 11:53:10;;;;;;;4.60;4.20;;;28.50;75.00;;;;;;5052194;28;21056;-85
2021/08/11 11:55:40;;;;;;;6.73;4.80;;;27.60;78.20;;;;;;5051721;28;20631;-84
2021/08/11 11:58:09;;;;;;;5.63;4.00;;;28.10;79.10;;;;;;5050727;28;20634;-86
2021/08/11 12:00:36;;;;;;;4.87;4.57;;;27.80;77.60;;;;;;5034113;28;21238;-85
2021/08/11 12:03:04;;;;;;;5.30;4.80;;;27.60;79.70;;;;;;5051837;28;20610;-85
2021/08/11 12:05:45;;;;;;;5.67;4.97;;;28.10;81.10;;;;;;5052665;28;21000;-86
2021/08/11 12:08:13;;;;;;;8.10;5.60;;;28.70;79.90;;;;;;5040301;28;20607;-86
2021/08/11 12:10:42;;;;;;;3.77;3.47;;;30.00;75.50;;;;;;5041740;28;20681;-84
2021/08/11 12:13:09;;;;;;;4.60;4.20;;;31.40;71.90;;;;;;5043539;28;20667;-85
2021/08/11 12:15:37;;;;;;;4.93;4.57;;;30.90;68.20;;;;;;5031412;28;21128;-86
2021/08/11 12:18:17;;;;;;;4.40;4.10;;;31.70;65.70;;;;;;5035746;28;20625;-86
2021/08/11 12:20:45;;;;;;;4.47;4.07;;;32.90;64.40;;;;;;5048761;28;20723;-87
2021/08/11 12:23:21;;;;;;;4.73;4.40;;;33.40;62.00;;;;;;5031139;28;20677;-86
2021/08/11 12:25:50;;;;;;;4.80;4.40;;;33.50;60.20;;;;;;5035266;28;20634;-84
2021/08/11 12:28:19;;;;;;;5.53;5.00;;;32.70;61.30;;;;;;5033127;28;20642;-85
2021/08/11 12:30:54;;;;;;;5.70;4.53;;;31.50;63.30;;;;;;5036495;28;20720;-85
2021/08/11 12:33:22;;;;;;;4.17;3.87;;;31.50;64.30;;;;;;5038694;28;20658;-86
2021/08/11 12:35:51;;;;;;;5.13;4.50;;;32.00;62.20;;;;;;5031553;28;20812;-86
2021/08/11 12:38:33;;;;;;;5.20;4.00;;;31.50;64.20;;;;;;5031155;28;20677;-83
2021/08/11 12:41:16;;;;;;;10.30;4.00;;;32.10;62.60;;;;;;5042532;28;20634;-86
2021/08/11 12:43:43;;;;;;;4.97;4.57;;;33.40;59.80;;;;;;5045714;28;20627;-85
2021/08/11 12:46:10;;;;;;;4.13;3.90;;;33.10;60.00;;;;;;5040313;28;20651;-86
2021/08/11 12:48:38;;;;;;;4.70;4.40;;;32.80;60.50;;;;;;5030876;28;20697;-86
2021/08/11 12:51:06;;;;;;;4.87;4.47;;;32.70;63.50;;;;;;5046223;28;20635;-85
2021/08/11 12:53:34;;;;;;;4.70;4.30;;;33.60;60.40;;;;;;5030275;28;20655;-86
2021/08/11 12:56:11;;;;;;;3.80;3.60;;;33.80;58.80;;;;;;5041257;28;21237;-87
2021/08/11 12:59:02;;;;;;;4.67;4.27;;;34.10;58.10;;;;;;5035649;28;20649;-88
2021/08/11 13:01:38;;;;;;;6.03;4.20;;;34.60;56.30;;;;;;5028885;28;21202;-86